O John Clark Restricted Landing Area [CLOSED]

Jump to: basic info | weather | comments

Related pages: nearby airports | nearby navaids | notams | map

Basic information (top)

Codes: 7IL2
Location: lon 42.368401, lat -87.991699, elev 790 ft / 241 m msl
Status: closed

Weather (top)

Current conditions for Waukegan Regional Airport 6nm (12km) ENE (rec'd 2014/07/28 05:52Z):

KUGN 280552Z AUTO 34007G17KT 10SM OVC040 17/11 A2992 RMK AO2 SLP123 60014 T01720106 10233 20172 402890172 53010

Airport forecast for Kenosha Regional Airport 14nm (26km) NNE (rec'd 2014/07/28 06:21Z):

TAF KENW 280520Z 2806/2906 35010G18KT P6SM SCT035 SCT045 
      TEMPO 2806/2807 BKN045 
     FM281300 36013G21KT P6SM FEW025 
     FM281700 01010G17KT P6SM SCT040 
     FM290200 23005KT P6SM BKN050

Latest comments (top)

No comments yet for O John Clark Restricted Landing Area

More... (top)

See also NOTAMs and nearby airports and navaids, or visit the O John Clark Restricted Landing Area page at the main OurAirports website..